Terminal Aerodrome Forecast
Issued by NWS Green Bay, WI

Home | Current Version | Previous Version | Text Only | Print | Product List | Glossary Off
Versions: 1 2 3 4 5 6 7 8 9 10 11 12 13 14 15

000
FTUS43 KGRB 212337
TAFGRB
TAF
KGRB 212337Z 2200/2224 10006KT P6SM BKN200
     FM220400 13004KT 4SM BR SCT250
     FM220600 18004KT 3SM BR SCT150
      TEMPO 2210/2213 1SM BR
     FM221300 20007KT P6SM FEW250
     FM221600 20010G17KT P6SM SKC=

USA.gov is the U.S. government's official web portal to all federal, state and local government web resources and services.